Friday Harbor, WA

5:24 PM PST on February 11, 2016 (GMT -0800)
Ericson | | Change Station
CLOSE
Current Station
Personal Weather Station
Location: Friday Harbor, WA
Elevation: 325 ft
Nearby Weather Stations

Elev 325 ft 48.54 °N, 123.07 °W | Updated 8 seconds ago

Light Rain
Light Rain
47.3 °F
Feels Like 47 °F
N
0.0
Wind Variable Wind from SE
Gusts 0.0 mph

Today
High -- | Low -- °F
--% Chance of Precip.
Yesterday
High -- | Low -- °F
Precip. -- in
Pressure 30.09 in
Visibility 10.0 miles
Clouds Mostly Cloudy 3700 ft
Mostly Cloudy 6500 ft
Overcast 8500 ft
Windchill 47 °F
Dew Point 46 °F
Humidity 95%
Rainfall 0.09 in
Snow Depth Not available.
7:27 AM 5:26 PM
Waxing Crescent, 16% visible
METAR KFHR 120053Z AUTO 00000KT 10SM -RA BKN037 BKN065 OVC085 09/08 A3009 RMK AO2 SLP189 P0002 T00940078
Pressure 30.09 in
Visibility 10.0 miles
Clouds Mostly Cloudy 3700 ft
Mostly Cloudy 6500 ft
Overcast 8500 ft
Windchill 47 °F
Dew Point 46 °F
Humidity 95%
Rainfall 0.09 in
Snow Depth Not available.
7:27 AM 5:26 PM
Waxing Crescent, 16% visible
METAR KFHR 120053Z AUTO 00000KT 10SM -RA BKN037 BKN065 OVC085 09/08 A3009 RMK AO2 SLP189 P0002 T00940078

10-Day Weather Forecast

Almanac

Astronomy

Feb. 11, 2016 Rise Set
Actual Time
Civil Twilight
Nautical Twilight
Astronomical Twilight
Moon
Length of Visible Light
Length of Day
Tomorrow will be .
, % of the Moon is Illuminated

Today's Extremes

State Highs State Lows

Community

WunderPhotos

Upload Photos

1,892,205 photos uploaded!

WunderBlog® & News

Nearby

Air Quality

  Air Quality AQ Index Pollutant
Not available.

Snow Depth

Station Depth Elevation

Earthquake Activity

City Distance Mag. Time & Date
Minimum magnitude displayed is 2.5.

Coastal Water Temperatures

Place Temperature

Stations

Nearby Weather Stations

Station Location Temp. Windchill Dew Point Humidity Wind Precip. Elev Updated Type
                   

Watches & Warnings

There are currently no watches in effect.